Time;durP1;ratioP1;P1;durP2;ratioP2;P2;SDS_P1;SDS_P2;PMS_P1;PMS_P2;Temp;Humidity;BMP_temperature;BMP_pressure;BME280_temperature;BME280_humidity;BME280_pressure;Samples;Min_cycle;Max_cycle;Signal;HPM_P1;HPM_P2
2021/05/31 00:00:32;;;;;;;1999.90;999.90;;;;;;;11.62;100.00;95678.75;5071069;28;20597;-60
2021/05/31 00:02:58;;;;;;;1999.90;999.90;;;;;;;11.53;100.00;95690.91;5070877;28;20235;-60
2021/05/31 00:05:25;;;;;;;1999.90;999.90;;;;;;;11.45;100.00;95680.44;5071295;28;20200;-61
2021/05/31 00:07:53;;;;;;;1999.90;999.90;;;;;;;11.38;100.00;95680.06;5070971;28;20325;-60
2021/05/31 00:10:22;;;;;;;1999.90;999.90;;;;;;;11.43;100.00;95678.13;5071268;28;20196;-61
2021/05/31 00:12:50;;;;;;;1999.90;999.90;;;;;;;11.23;100.00;95673.34;5071082;28;20628;-60
2021/05/31 00:15:16;;;;;;;1999.90;999.90;;;;;;;11.38;100.00;95672.25;5070754;28;20192;-61
2021/05/31 00:17:43;;;;;;;1999.90;999.90;;;;;;;11.29;100.00;95667.00;5071198;28;20656;-62
2021/05/31 00:20:12;;;;;;;1999.90;999.90;;;;;;;11.35;100.00;95665.06;5071117;28;20291;-58
2021/05/31 00:22:39;;;;;;;1999.90;999.90;;;;;;;11.52;100.00;95663.34;5070504;28;20246;-60
2021/05/31 00:25:08;;;;;;;1999.90;999.90;;;;;;;11.58;100.00;95664.00;5070511;28;20223;-61
2021/05/31 00:27:35;;;;;;;1999.90;999.90;;;;;;;11.58;100.00;95658.81;5070555;28;20203;-60
2021/05/31 00:30:05;;;;;;;1999.90;999.90;;;;;;;11.50;100.00;95656.91;5070493;28;20189;-59
2021/05/31 00:32:32;;;;;;;1999.90;999.90;;;;;;;11.42;100.00;95660.19;5070235;28;20189;-60
2021/05/31 00:34:59;;;;;;;1999.90;999.90;;;;;;;11.54;100.00;95658.63;5070789;28;20193;-60
2021/05/31 00:37:26;;;;;;;1999.90;999.90;;;;;;;11.63;100.00;95661.28;5070453;28;20188;-61
2021/05/31 00:39:52;;;;;;;1999.90;999.90;;;;;;;11.68;100.00;95658.56;5069951;28;20291;-59
2021/05/31 00:42:19;;;;;;;1999.90;999.90;;;;;;;11.61;100.00;95653.00;5070354;28;20224;-61
2021/05/31 00:44:46;;;;;;;1999.90;999.90;;;;;;;11.57;100.00;95649.44;5070484;28;20265;-60
2021/05/31 00:47:15;;;;;;;1999.90;999.90;;;;;;;11.44;100.00;95652.88;5070417;28;20189;-60
2021/05/31 00:49:42;;;;;;;1999.90;999.90;;;;;;;11.32;100.00;95655.22;5070519;28;20633;-60
2021/05/31 00:52:09;;;;;;;1999.90;999.90;;;;;;;11.40;100.00;95651.94;5070322;28;20284;-61
2021/05/31 00:54:37;;;;;;;1999.90;999.90;;;;;;;11.35;100.00;95639.81;5070293;28;20279;-59
2021/05/31 00:57:05;;;;;;;1999.90;999.90;;;;;;;11.39;100.00;95645.19;5070179;28;20196;-60
2021/05/31 01:02:56;;;;;;;1999.90;999.90;;;;;;;11.14;100.00;95639.47;5070210;28;20740;-60
2021/05/31 01:05:24;;;;;;;1999.90;999.90;;;;;;;11.11;100.00;95634.06;5070207;28;20579;-59
2021/05/31 01:07:57;;;;;;;1999.90;999.90;;;;;;;11.06;100.00;95640.16;5070397;28;20200;-60
2021/05/31 01:10:32;;;;;;;1999.90;999.90;;;;;;;11.06;100.00;95632.34;5070148;28;20188;-60
2021/05/31 01:13:04;;;;;;;1999.90;999.90;;;;;;;11.07;100.00;95633.88;5070015;28;20729;-59
2021/05/31 01:15:33;;;;;;;1999.90;999.90;;;;;;;11.03;100.00;95627.72;5070128;28;20192;-60
2021/05/31 01:18:22;;;;;;;1999.90;999.90;;;;;;;11.19;100.00;95636.75;5070191;28;20235;-61
2021/05/31 01:21:13;;;;;;;1999.90;999.90;;;;;;;11.19;100.00;95628.97;5070186;28;20200;-59
2021/05/31 01:23:45;;;;;;;1999.90;999.90;;;;;;;11.20;100.00;95627.91;5062627;28;20658;-59
2021/05/31 01:26:14;;;;;;;1999.90;999.90;;;;;;;11.23;100.00;95627.31;5068499;28;20228;-59
2021/05/31 01:29:04;;;;;;;1999.90;999.90;;;;;;;11.27;100.00;95626.72;5070294;28;20742;-59
2021/05/31 01:31:42;;;;;;;1999.90;999.90;;;;;;;11.25;100.00;95629.63;5069891;28;20200;-60
2021/05/31 01:34:11;;;;;;;1999.90;999.90;;;;;;;11.34;100.00;95627.09;5069856;28;20246;-59
2021/05/31 01:36:44;;;;;;;1999.90;999.90;;;;;;;11.30;100.00;95626.91;5070047;28;20204;-58
2021/05/31 01:39:13;;;;;;;1999.90;999.90;;;;;;;11.37;100.00;95626.47;5070060;28;20200;-60
2021/05/31 01:41:41;;;;;;;1999.90;999.90;;;;;;;11.38;100.00;95623.59;5069911;28;20636;-59
2021/05/31 01:44:09;;;;;;;1999.90;999.90;;;;;;;11.40;100.00;95615.50;5070258;28;20224;-59
2021/05/31 01:46:36;;;;;;;1999.90;999.90;;;;;;;11.47;100.00;95613.25;5069657;28;20193;-59
2021/05/31 01:49:03;;;;;;;1999.90;999.90;;;;;;;11.46;100.00;95614.31;5069556;28;20672;-58
2021/05/31 01:51:32;;;;;;;1999.90;999.90;;;;;;;11.45;100.00;95608.34;5073766;28;20211;-59
2021/05/31 01:54:00;;;;;;;1999.90;999.90;;;;;;;11.39;100.00;95612.13;5073941;28;20204;-59
2021/05/31 01:56:28;;;;;;;1999.90;999.90;;;;;;;11.47;100.00;95602.84;5073594;28;20200;-59
2021/05/31 01:58:55;;;;;;;1999.90;999.90;;;;;;;11.52;100.00;95600.13;5073618;28;20200;-59
2021/05/31 02:01:24;;;;;;;1999.90;999.90;;;;;;;11.53;100.00;95602.44;5073269;28;20231;-59
2021/05/31 02:03:51;;;;;;;1999.90;999.90;;;;;;;11.45;100.00;95600.56;5073235;28;20200;-59
2021/05/31 02:06:18;;;;;;;1999.90;999.90;;;;;;;11.34;100.00;95595.88;5073307;28;20192;-59
2021/05/31 02:08:45;;;;;;;1999.90;999.90;;;;;;;11.34;100.00;95598.47;5073549;28;20192;-59
2021/05/31 02:11:20;;;;;;;1999.90;999.90;;;;;;;11.35;100.00;95592.19;5073511;28;20251;-58
2021/05/31 02:13:50;;;;;;;1999.90;999.90;;;;;;;11.36;100.00;95588.50;5073062;28;20687;-59
2021/05/31 02:16:23;;;;;;;1999.90;999.90;;;;;;;11.32;100.00;95590.16;5073143;28;20188;-59
2021/05/31 02:18:53;;;;;;;1999.90;999.90;;;;;;;11.32;100.00;95592.78;5073200;28;20254;-58
2021/05/31 02:21:21;;;;;;;1999.90;999.90;;;;;;;11.40;100.00;95587.66;5073147;28;20208;-59
2021/05/31 02:23:50;;;;;;;1999.90;999.90;;;;;;;11.38;100.00;95589.78;5072522;28;20228;-59
2021/05/31 02:26:19;;;;;;;1999.90;999.90;;;;;;;11.27;100.00;95585.84;5072798;28;20262;-59
2021/05/31 02:28:47;;;;;;;1999.90;999.90;;;;;;;11.31;100.00;95588.66;5072832;28;20668;-59
2021/05/31 02:31:16;;;;;;;1999.90;999.90;;;;;;;11.31;100.00;95583.47;5073191;28;20230;-59
2021/05/31 02:33:45;;;;;;;1999.90;999.90;;;;;;;11.29;100.00;95585.56;5072940;28;20195;-60
2021/05/31 02:36:13;;;;;;;1999.90;999.90;;;;;;;11.29;100.00;95583.75;5072864;28;20198;-59
2021/05/31 02:38:41;;;;;;;1999.90;999.90;;;;;;;11.35;100.00;95582.56;5072695;28;20208;-59
2021/05/31 02:41:08;;;;;;;1999.90;999.90;;;;;;;11.46;100.00;95576.03;5072622;28;20227;-60
2021/05/31 02:43:35;;;;;;;1999.90;999.90;;;;;;;11.59;100.00;95587.47;5072657;28;20197;-60
2021/05/31 02:46:02;;;;;;;1999.90;999.90;;;;;;;11.60;100.00;95589.00;5072850;28;20654;-59
2021/05/31 02:48:29;;;;;;;1999.90;999.90;;;;;;;11.52;100.00;95587.88;5072519;28;20219;-59
2021/05/31 02:50:56;;;;;;;1999.90;999.90;;;;;;;11.41;100.00;95585.78;5072475;28;20675;-61
2021/05/31 02:53:25;;;;;;;1999.90;999.90;;;;;;;11.35;100.00;95587.00;5072426;28;20188;-59
2021/05/31 02:55:52;;;;;;;1999.90;999.90;;;;;;;11.45;100.00;95586.75;5072987;28;20196;-60
2021/05/31 02:58:19;;;;;;;1999.90;999.90;;;;;;;11.40;100.00;95584.28;5072343;28;20205;-60
2021/05/31 03:00:46;;;;;;;1999.90;999.90;;;;;;;11.39;100.00;95593.16;5072057;28;20200;-60
2021/05/31 03:03:13;;;;;;;1999.90;999.90;;;;;;;11.36;100.00;95588.50;5071947;28;20259;-60
2021/05/31 03:05:39;;;;;;;1999.90;999.90;;;;;;;11.36;100.00;95589.28;5072600;28;20625;-62
2021/05/31 03:08:07;;;;;;;1999.90;999.90;;;;;;;11.43;100.00;95583.69;5072456;28;20193;-61
2021/05/31 03:10:35;;;;;;;1999.90;999.90;;;;;;;11.44;100.00;95574.81;5072558;28;20192;-60
2021/05/31 03:13:03;;;;;;;1999.90;999.90;;;;;;;11.43;100.00;95581.06;5072159;28;20916;-61
2021/05/31 03:15:31;;;;;;;1999.90;999.90;;;;;;;11.37;100.00;95577.81;5072269;28;20196;-60
2021/05/31 03:17:58;;;;;;;1999.90;999.90;;;;;;;11.46;100.00;95577.88;5072196;28;20196;-61
2021/05/31 03:20:26;;;;;;;1999.90;999.90;;;;;;;11.42;100.00;95576.94;5072092;28;20668;-60
2021/05/31 03:22:54;;;;;;;1999.90;999.90;;;;;;;11.57;100.00;95571.38;5071651;28;20240;-60
2021/05/31 03:25:21;;;;;;;1999.90;999.90;;;;;;;11.58;100.00;95568.47;5071769;28;20311;-61
2021/05/31 03:27:49;;;;;;;1999.90;999.90;;;;;;;11.52;100.00;95576.69;5072155;28;20202;-61
2021/05/31 03:30:17;;;;;;;1999.90;999.90;;;;;;;11.52;100.00;95571.50;5071776;28;20193;-61
2021/05/31 03:32:44;;;;;;;1999.90;999.90;;;;;;;11.47;100.00;95579.41;5071995;28;20620;-60
2021/05/31 03:35:12;;;;;;;1999.90;999.90;;;;;;;11.40;100.00;95581.69;5071652;28;20206;-61
2021/05/31 03:37:40;;;;;;;1999.90;999.90;;;;;;;11.35;100.00;95579.19;5071614;28;20647;-60
2021/05/31 03:40:08;;;;;;;1999.90;999.90;;;;;;;11.32;100.00;95580.53;5071636;28;20233;-60
2021/05/31 03:42:35;;;;;;;1999.90;999.90;;;;;;;11.23;100.00;95574.50;5071496;28;20228;-60
2021/05/31 03:45:05;;;;;;;1999.90;999.90;;;;;;;11.20;100.00;95575.88;5071384;28;20667;-61
2021/05/31 03:47:32;;;;;;;1999.90;999.90;;;;;;;11.29;100.00;95580.38;5071230;28;20675;-60
2021/05/31 03:49:58;;;;;;;1999.90;999.90;;;;;;;11.16;100.00;95582.72;5071324;28;20192;-61
2021/05/31 03:52:25;;;;;;;1999.90;999.90;;;;;;;11.25;100.00;95576.81;5071383;28;20642;-60
2021/05/31 03:54:52;;;;;;;1999.90;999.90;;;;;;;11.27;100.00;95579.88;5071585;28;20279;-60
2021/05/31 03:57:19;;;;;;;1999.90;999.90;;;;;;;11.38;100.00;95581.19;5071233;28;20193;-60
2021/05/31 03:59:48;;;;;;;1999.90;999.90;;;;;;;11.44;100.00;95582.63;5071366;28;20200;-60
2021/05/31 04:02:16;;;;;;;1999.90;999.90;;;;;;;11.46;100.00;95583.06;5071089;28;20223;-61
2021/05/31 04:04:44;;;;;;;1999.90;999.90;;;;;;;11.38;100.00;95581.97;5071336;28;20203;-60
2021/05/31 04:12:50;;;;;;;1999.90;999.90;;;;;;;11.53;100.00;95589.41;5070286;28;20238;-58
2021/05/31 04:15:16;;;;;;;1999.90;999.90;;;;;;;11.47;100.00;95587.22;5070485;28;20189;-59
2021/05/31 04:17:45;;;;;;;1999.90;999.90;;;;;;;11.31;100.00;95586.06;5070844;28;20287;-59
2021/05/31 04:20:14;;;;;;;1999.90;999.90;;;;;;;11.33;100.00;95581.31;5070912;28;20241;-60
2021/05/31 04:22:41;;;;;;;1999.90;999.90;;;;;;;11.29;100.00;95572.56;5070502;28;20726;-61
2021/05/31 04:25:13;;;;;;;1999.90;999.90;;;;;;;11.29;100.00;95575.16;5071238;28;20278;-60
2021/05/31 04:27:40;;;;;;;1999.90;999.90;;;;;;;11.42;100.00;95571.72;5070876;28;20211;-62
2021/05/31 04:30:08;;;;;;;1999.90;999.90;;;;;;;11.33;100.00;95574.28;5070886;28;20593;-61
2021/05/31 04:32:34;;;;;;;1999.90;999.90;;;;;;;11.42;100.00;95579.53;5070345;28;20204;-61
2021/05/31 04:35:04;;;;;;;1999.90;999.90;;;;;;;11.61;100.00;95569.69;5070386;28;20228;-60
2021/05/31 04:37:33;;;;;;;1999.90;999.90;;;;;;;12.11;100.00;95566.91;5070385;28;20192;-60
2021/05/31 04:40:00;;;;;;;1999.90;999.90;;;;;;;12.55;100.00;95566.78;5070434;28;20196;-59
2021/05/31 04:42:26;;;;;;;1999.90;999.90;;;;;;;13.14;100.00;95575.03;5070466;28;20231;-60
2021/05/31 04:44:53;;;;;;;1999.90;999.90;;;;;;;13.42;100.00;95580.69;5070649;28;20283;-60
2021/05/31 04:47:20;;;;;;;1999.90;999.90;;;;;;;13.64;98.47;95576.06;5070379;28;20204;-61
2021/05/31 04:49:47;;;;;;;1999.90;999.90;;;;;;;13.76;96.98;95581.41;5070443;28;20270;-61
2021/05/31 04:52:15;;;;;;;1999.90;999.90;;;;;;;13.89;95.68;95582.31;5070107;28;20585;-60
2021/05/31 04:54:43;;;;;;;1999.90;999.90;;;;;;;13.91;95.83;95576.75;5070217;28;20274;-60
2021/05/31 04:57:10;;;;;;;1999.90;999.90;;;;;;;13.75;95.70;95577.25;5070411;28;20203;-59
2021/05/31 04:59:37;;;;;;;1999.90;999.90;;;;;;;13.83;93.54;95590.63;5070279;28;20196;-62
2021/05/31 05:02:04;;;;;;;1999.90;999.90;;;;;;;13.83;91.73;95585.38;5069993;28;20334;-60
2021/05/31 05:04:30;;;;;;;1999.90;999.90;;;;;;;13.74;94.70;95578.34;5070219;28;20584;-61
2021/05/31 05:06:57;;;;;;;1999.90;999.90;;;;;;;13.40;95.29;95585.47;5070021;28;20249;-60
2021/05/31 05:09:26;;;;;;;1999.90;999.90;;;;;;;13.24;95.48;95575.47;5069878;28;20668;-60
2021/05/31 05:11:52;;;;;;;1999.90;999.90;;;;;;;13.29;96.75;95583.16;5070151;28;20220;-60
2021/05/31 05:14:19;;;;;;;1999.90;999.90;;;;;;;13.39;94.99;95589.91;5070142;28;20246;-61
2021/05/31 05:16:47;;;;;;;1999.90;999.90;;;;;;;13.49;92.25;95587.00;5070270;28;20283;-60
2021/05/31 05:19:13;;;;;;;1999.90;999.90;;;;;;;13.41;91.04;95590.34;5070269;28;20342;-61
2021/05/31 05:21:41;;;;;;;1999.90;999.90;;;;;;;13.51;92.28;95587.44;5069930;28;20207;-60
2021/05/31 05:24:10;;;;;;;1999.90;999.90;;;;;;;13.98;90.72;95590.13;5070422;28;20613;-60
2021/05/31 05:26:39;;;;;;;1999.90;999.90;;;;;;;14.43;88.51;95593.06;5074252;28;20216;-61
2021/05/31 05:29:06;;;;;;;1999.90;999.90;;;;;;;14.74;83.59;95596.16;5074270;28;20198;-62
2021/05/31 05:31:33;;;;;;;1999.90;999.90;;;;;;;15.26;89.00;95588.69;5074245;28;20196;-61
2021/05/31 05:34:02;;;;;;;1999.90;999.90;;;;;;;15.41;85.00;95598.59;5074195;28;20652;-61
2021/05/31 05:36:42;;;;;;;1999.90;999.90;;;;;;;15.02;80.91;95601.66;5074159;28;20597;-61
2021/05/31 05:39:24;;;;;;;1999.90;999.90;;;;;;;15.09;85.88;95607.91;5074081;28;20207;-61
2021/05/31 05:42:05;;;;;;;1999.90;999.90;;;;;;;14.73;84.47;95614.75;5073955;28;20675;-61
2021/05/31 05:45:04;;;;;;;1999.90;999.90;;;;;;;15.16;83.52;95602.16;5073949;28;20218;-62
2021/05/31 05:47:43;;;;;;;1999.90;999.90;;;;;;;15.13;80.90;95608.06;5074065;28;20333;-60
2021/05/31 05:50:12;;;;;;;1999.90;999.90;;;;;;;15.05;83.13;95593.16;5073667;28;20703;-62
2021/05/31 05:52:39;;;;;;;1999.90;999.90;;;;;;;14.62;82.58;95596.03;5073735;28;20193;-61
2021/05/31 05:55:10;;;;;;;1999.90;999.90;;;;;;;14.52;85.12;95591.94;5073717;28;20208;-61
2021/05/31 05:57:39;;;;;;;1999.90;999.90;;;;;;;14.65;85.81;95590.94;5073596;28;20215;-61
2021/05/31 06:00:08;;;;;;;1999.90;999.90;;;;;;;14.49;83.42;95591.81;5073393;28;20242;-61
2021/05/31 06:02:35;;;;;;;1999.90;999.90;;;;;;;14.43;80.89;95598.28;5073261;28;20285;-60
2021/05/31 06:05:02;;;;;;;1999.90;999.90;;;;;;;14.08;83.97;95592.41;5073470;28;20223;-60
2021/05/31 06:07:29;;;;;;;1999.90;999.90;;;;;;;14.17;86.33;95593.13;5073297;28;20193;-60
2021/05/31 06:09:56;;;;;;;1999.90;999.90;;;;;;;14.64;87.25;95592.00;5073549;28;20275;-61
2021/05/31 06:12:23;;;;;;;1999.90;999.90;;;;;;;14.98;87.37;95585.84;5073401;28;20261;-60
2021/05/31 06:14:51;;;;;;;1999.90;999.90;;;;;;;15.45;85.32;95578.53;5073348;28;20200;-60
2021/05/31 06:17:18;;;;;;;1999.90;999.90;;;;;;;15.62;83.41;95582.09;5073050;28;20275;-60
2021/05/31 06:19:45;;;;;;;1999.90;999.90;;;;;;;15.54;82.42;95581.13;5073128;28;20219;-61
2021/05/31 06:22:12;;;;;;;1999.90;999.90;;;;;;;15.56;81.63;95581.53;5072908;28;20240;-60
2021/05/31 06:24:39;;;;;;;1999.90;999.90;;;;;;;16.09;81.67;95574.69;5073263;28;20224;-60
2021/05/31 06:27:06;;;;;;;1999.90;999.90;;;;;;;16.17;78.92;95587.72;5073466;28;20204;-61
2021/05/31 06:29:33;;;;;;;1999.90;999.90;;;;;;;16.08;76.36;95578.41;5072855;28;20195;-60
2021/05/31 06:32:01;;;;;;;1999.90;999.90;;;;;;;16.07;78.53;95580.25;5072879;28;20241;-61
2021/05/31 06:34:28;;;;;;;1999.90;999.90;;;;;;;15.99;75.00;95575.84;5072834;28;20192;-62
2021/05/31 06:36:55;;;;;;;1999.90;999.90;;;;;;;16.34;73.30;95573.59;5071910;28;20196;-60
2021/05/31 06:39:22;;;;;;;1999.90;999.90;;;;;;;16.29;74.44;95579.84;5072759;28;20249;-60
2021/05/31 06:41:50;;;;;;;1999.90;999.90;;;;;;;16.49;73.81;95578.19;5073008;28;20250;-59
2021/05/31 06:44:17;;;;;;;1999.90;999.90;;;;;;;16.47;73.59;95569.16;5073228;28;20232;-61
2021/05/31 06:46:44;;;;;;;1999.90;999.90;;;;;;;16.32;72.63;95571.34;5072731;28;20679;-59
2021/05/31 06:49:12;;;;;;;1999.90;999.90;;;;;;;16.33;76.27;95569.47;5072899;28;20238;-60
2021/05/31 06:51:39;;;;;;;1999.90;999.90;;;;;;;16.32;73.39;95573.19;5072653;28;20683;-62
2021/05/31 06:54:06;;;;;;;1999.90;999.90;;;;;;;15.93;75.38;95566.69;5072753;28;20203;-60
2021/05/31 06:56:33;;;;;;;1999.90;999.90;;;;;;;15.99;78.60;95569.88;5072654;28;20223;-61
2021/05/31 06:59:00;;;;;;;1999.90;999.90;;;;;;;15.98;79.66;95565.72;5072409;28;20201;-60
2021/05/31 07:01:27;;;;;;;1999.90;999.90;;;;;;;16.41;78.97;95571.22;5072425;28;20223;-57
2021/05/31 07:03:53;;;;;;;1999.90;999.90;;;;;;;16.09;76.63;95578.06;5072250;28;20238;-60
2021/05/31 07:06:21;;;;;;;1999.90;999.90;;;;;;;16.11;74.15;95572.50;5072542;28;20192;-61
2021/05/31 07:08:48;;;;;;;1999.90;999.90;;;;;;;15.99;79.56;95564.63;5072328;28;20578;-60
2021/05/31 07:11:17;;;;;;;1999.90;999.90;;;;;;;15.86;76.11;95567.22;5072197;28;20239;-60
2021/05/31 07:13:45;;;;;;;1999.90;999.90;;;;;;;15.85;78.16;95568.31;5072234;28;20582;-61
2021/05/31 07:16:15;;;;;;;1999.90;999.90;;;;;;;16.29;78.41;95558.09;5072199;28;20247;-61
2021/05/31 07:18:42;;;;;;;1999.90;999.90;;;;;;;16.47;72.55;95564.66;5072031;28;20208;-61
2021/05/31 07:21:09;;;;;;;1999.90;999.90;;;;;;;16.67;73.32;95566.44;5072186;28;20283;-61
2021/05/31 07:23:39;;;;;;;1999.90;999.90;;;;;;;16.95;72.93;95558.63;5071819;28;20635;-61
2021/05/31 07:26:07;;;;;;;1999.90;999.90;;;;;;;16.77;72.88;95560.75;5071963;28;20230;-62
2021/05/31 07:28:34;;;;;;;1999.90;999.90;;;;;;;17.12;72.70;95563.63;5071902;28;20550;-62
2021/05/31 07:31:01;;;;;;;1999.90;999.90;;;;;;;17.23;70.37;95573.66;5072247;28;20553;-61
2021/05/31 07:33:28;;;;;;;1999.90;999.90;;;;;;;17.71;73.84;95562.22;5072349;28;20200;-61
2021/05/31 07:35:57;;;;;;;1999.90;999.90;;;;;;;18.30;70.92;95562.94;5072291;28;20216;-62
2021/05/31 07:38:23;;;;;;;1999.90;999.90;;;;;;;18.04;68.79;95571.31;5071996;28;20200;-61
2021/05/31 07:40:52;;;;;;;1999.90;999.90;;;;;;;18.04;67.93;95565.31;5071874;28;20656;-60
2021/05/31 07:43:18;;;;;;;1999.90;999.90;;;;;;;18.05;66.80;95564.19;5071470;28;20232;-61
2021/05/31 07:45:45;;;;;;;1999.90;999.90;;;;;;;17.42;68.33;95568.56;5071862;28;20192;-61
2021/05/31 07:48:12;;;;;;;1999.90;999.90;;;;;;;17.23;72.07;95551.53;5071787;28;20293;-62
2021/05/31 07:50:39;;;;;;;1999.90;999.90;;;;;;;16.87;71.77;95551.63;5071742;28;20193;-60
2021/05/31 07:53:06;;;;;;;1999.90;999.90;;;;;;;17.00;73.34;95544.50;5071886;28;20223;-63
2021/05/31 07:55:33;;;;;;;1999.90;999.90;;;;;;;17.49;75.02;95545.09;5071571;28;20196;-61
2021/05/31 07:58:01;;;;;;;1999.90;999.90;;;;;;;17.42;72.06;95547.53;5071423;28;20212;-61
2021/05/31 08:00:29;;;;;;;1999.90;999.90;;;;;;;17.21;68.26;95543.22;5071358;28;20224;-61
2021/05/31 08:02:56;;;;;;;1999.90;999.90;;;;;;;17.28;69.49;95541.91;5071167;28;20611;-61
2021/05/31 08:05:23;;;;;;;1999.90;999.90;;;;;;;17.34;69.91;95543.16;5071062;28;20196;-60
2021/05/31 08:07:51;;;;;;;1999.90;999.90;;;;;;;17.59;71.31;95532.25;5071266;28;20196;-61
2021/05/31 08:10:18;;;;;;;1999.90;999.90;;;;;;;17.76;70.61;95533.81;5071267;28;20208;-60
2021/05/31 08:12:46;;;;;;;1999.90;999.90;;;;;;;17.77;68.69;95548.50;5071153;28;20262;-61
2021/05/31 08:15:14;;;;;;;1999.90;999.90;;;;;;;17.47;71.60;95537.56;5071098;28;20197;-60
2021/05/31 08:17:41;;;;;;;1999.90;999.90;;;;;;;17.54;70.22;95534.31;5070920;28;20196;-61
2021/05/31 08:20:10;;;;;;;1999.90;999.90;;;;;;;17.52;68.61;95531.28;5070836;28;20193;-60
2021/05/31 08:22:38;;;;;;;1999.90;999.90;;;;;;;16.89;68.77;95530.28;5070380;28;20328;-60
2021/05/31 08:25:06;;;;;;;1999.90;999.90;;;;;;;17.03;71.63;95535.97;5070719;28;20212;-59
2021/05/31 08:27:33;;;;;;;1999.90;999.90;;;;;;;17.23;66.61;95540.28;5070480;28;20749;-61
2021/05/31 08:30:01;;;;;;;1999.90;999.90;;;;;;;17.18;65.98;95543.16;5070439;28;20192;-60
2021/05/31 08:32:29;;;;;;;1999.90;999.90;;;;;;;17.31;66.85;95539.38;5070403;28;20188;-60
2021/05/31 08:34:57;;;;;;;1999.90;999.90;;;;;;;17.54;67.30;95539.59;5070536;28;20571;-61
2021/05/31 08:37:24;;;;;;;1999.90;999.90;;;;;;;17.48;66.69;95533.84;5070443;28;20192;-59
2021/05/31 08:39:53;;;;;;;1999.90;999.90;;;;;;;17.48;67.47;95533.06;5070545;28;20291;-60
2021/05/31 08:42:20;;;;;;;1999.90;999.90;;;;;;;17.10;68.44;95534.28;5070140;28;20338;-59
2021/05/31 08:44:47;;;;;;;1999.90;999.90;;;;;;;16.80;69.05;95530.44;5070594;28;20200;-60
2021/05/31 08:47:14;;;;;;;1999.90;999.90;;;;;;;16.95;72.36;95521.84;5070489;28;20247;-60
2021/05/31 08:49:43;;;;;;;1999.90;999.90;;;;;;;17.25;69.38;95537.31;5070113;28;20192;-59
2021/05/31 08:52:10;;;;;;;1999.90;999.90;;;;;;;17.39;68.55;95525.31;5070320;28;20196;-60
2021/05/31 08:54:36;;;;;;;1999.90;999.90;;;;;;;17.50;67.83;95531.63;5070717;28;20200;-60
2021/05/31 08:57:04;;;;;;;1999.90;999.90;;;;;;;17.05;66.62;95531.13;5070115;28;20231;-59
2021/05/31 08:59:30;;;;;;;1999.90;999.90;;;;;;;16.99;68.49;95530.59;5069591;28;20246;-60
2021/05/31 09:01:57;;;;;;;1999.90;999.90;;;;;;;17.45;67.84;95529.22;5070052;28;20196;-60
2021/05/31 09:04:25;;;;;;;1999.90;999.90;;;;;;;17.95;66.95;95525.25;5069980;28;20197;-61
2021/05/31 09:06:57;;;;;;;1999.90;999.90;;;;;;;17.95;65.38;95530.53;5070492;28;20204;-59
2021/05/31 09:09:38;;;;;;;1999.90;999.90;;;;;;;18.49;65.89;95528.03;5070028;28;20196;-61
2021/05/31 09:12:08;;;;;;;1999.90;999.90;;;;;;;18.28;64.97;95517.03;5070114;28;20192;-59
2021/05/31 09:14:36;;;;;;;1999.90;999.90;;;;;;;18.62;64.57;95510.28;5070073;28;20651;-60
2021/05/31 09:17:03;;;;;;;1999.90;999.90;;;;;;;18.92;64.02;95509.44;5069958;28;20228;-60
2021/05/31 09:19:30;;;;;;;1999.90;999.90;;;;;;;18.67;64.04;95512.66;5069857;28;20192;-60
2021/05/31 09:22:03;;;;;;;1999.90;999.90;;;;;;;18.98;63.57;95509.16;5069768;28;20578;-61
2021/05/31 09:24:30;;;;;;;1999.90;999.90;;;;;;;19.20;64.23;95500.56;5069828;28;20259;-59
2021/05/31 09:26:59;;;;;;;1999.90;999.90;;;;;;;19.17;63.49;95503.91;5069703;28;20209;-60
2021/05/31 09:29:28;;;;;;;1999.90;999.90;;;;;;;18.39;63.29;95510.13;5069756;28;20196;-60
2021/05/31 09:31:58;;;;;;;1999.90;999.90;;;;;;;18.23;64.48;95499.63;5069911;28;20204;-60
2021/05/31 09:34:26;;;;;;;1999.90;999.90;;;;;;;18.32;66.30;95502.84;5069734;28;20296;-61
2021/05/31 09:36:54;;;;;;;1999.90;999.90;;;;;;;18.48;65.37;95498.31;5069897;28;20224;-59
2021/05/31 09:39:30;;;;;;;1999.90;999.90;;;;;;;18.40;62.55;95493.22;5069769;28;20547;-61
2021/05/31 09:42:06;;;;;;;1999.90;999.90;;;;;;;18.48;64.22;95495.69;5069661;28;20188;-61
2021/05/31 09:44:33;;;;;;;1999.90;999.90;;;;;;;18.52;60.29;95500.28;5069755;28;20689;-61
2021/05/31 09:47:00;;;;;;;1999.90;999.90;;;;;;;18.16;62.36;95491.56;5070105;28;20660;-62
2021/05/31 09:49:27;;;;;;;1999.90;999.90;;;;;;;17.97;61.07;95499.41;5069773;28;20227;-60
2021/05/31 09:52:00;;;;;;;1999.90;999.90;;;;;;;17.65;63.29;95493.34;5069687;28;20600;-61
2021/05/31 09:54:36;;;;;;;1999.90;999.90;;;;;;;17.69;63.91;95485.53;5069468;28;20232;-59
2021/05/31 09:57:17;;;;;;;1999.90;999.90;;;;;;;17.57;63.32;95489.75;5069701;28;20208;-62
2021/05/31 09:59:45;;;;;;;1999.90;999.90;;;;;;;17.89;65.53;95495.81;5069512;28;20202;-61
2021/05/31 10:02:16;;;;;;;1999.90;999.90;;;;;;;17.97;63.80;95484.38;5069893;28;20208;-61
2021/05/31 10:04:51;;;;;;;1999.90;999.90;;;;;;;17.92;61.18;95484.66;5069762;28;20208;-61
2021/05/31 10:07:24;;;;;;;1999.90;999.90;;;;;;;17.98;62.55;95487.78;5069460;28;20188;-60
2021/05/31 10:09:53;;;;;;;1999.90;999.90;;;;;;;18.00;61.37;95481.06;5070220;28;20236;-61
2021/05/31 10:12:20;;;;;;;1999.90;999.90;;;;;;;17.76;62.71;95485.72;5072872;28;20189;-59
2021/05/31 10:14:47;;;;;;;1999.90;999.90;;;;;;;17.91;64.19;95477.84;5073344;28;20548;-62
2021/05/31 10:17:14;;;;;;;1999.90;999.90;;;;;;;17.93;62.06;95474.88;5073234;28;20227;-61
2021/05/31 10:19:42;;;;;;;1999.90;999.90;;;;;;;17.92;61.82;95471.50;5073073;28;20203;-60
2021/05/31 10:22:10;;;;;;;1999.90;999.90;;;;;;;18.10;62.76;95468.50;5073104;28;20193;-61
2021/05/31 10:24:39;;;;;;;1999.90;999.90;;;;;;;18.20;62.38;95471.38;5073630;28;20569;-61
2021/05/31 10:27:10;;;;;;;1999.90;999.90;;;;;;;18.16;60.58;95472.41;5073187;28;20196;-61
2021/05/31 10:29:40;;;;;;;1999.90;999.90;;;;;;;17.98;60.55;95478.00;5073029;28;20192;-60
2021/05/31 10:32:08;;;;;;;1999.90;999.90;;;;;;;18.16;60.46;95469.78;5072842;28;20196;-61
2021/05/31 10:34:45;;;;;;;1999.90;999.90;;;;;;;18.16;60.78;95467.91;5073160;28;20197;-61
2021/05/31 10:37:21;;;;;;;1999.90;999.90;;;;;;;18.28;59.79;95467.06;5072767;28;20686;-61
2021/05/31 10:39:58;;;;;;;1999.90;999.90;;;;;;;18.20;61.26;95462.72;5072124;28;20425;-61
2021/05/31 10:42:38;;;;;;;1999.90;999.90;;;;;;;18.25;59.36;95449.31;5072596;28;20734;-61
2021/05/31 10:45:20;;;;;;;1999.90;999.90;;;;;;;18.23;57.44;95454.91;5072651;28;20658;-60
2021/05/31 10:48:09;;;;;;;1999.90;999.90;;;;;;;18.21;58.04;95453.72;5072989;28;20226;-62
2021/05/31 10:50:38;;;;;;;1999.90;999.90;;;;;;;18.34;57.61;95449.88;5072800;28;20224;-60
2021/05/31 10:53:08;;;;;;;1999.90;999.90;;;;;;;18.28;59.55;95449.38;5072800;28;20193;-61
2021/05/31 10:55:36;;;;;;;1999.90;999.90;;;;;;;18.21;59.82;95448.47;5072531;28;20208;-61
2021/05/31 10:58:04;;;;;;;1999.90;999.90;;;;;;;18.11;60.55;95449.00;5072616;28;20196;-61
2021/05/31 11:00:32;;;;;;;1999.90;999.90;;;;;;;18.06;59.92;95452.66;5072801;28;20585;-60
2021/05/31 11:03:12;;;;;;;1999.90;999.90;;;;;;;17.99;59.34;95447.22;5072359;28;20651;-60
2021/05/31 11:05:39;;;;;;;1999.90;999.90;;;;;;;17.95;60.46;95441.88;5072804;28;20205;-60
2021/05/31 11:08:09;;;;;;;1999.90;999.90;;;;;;;17.80;61.02;95447.91;5072099;28;20671;-60